EmailTwitter


Surface observations / United Kingdom / EGHI (03865)

Regions: Quebec | Canada | USA | Europe | France | UK | Elsewhere
Station
Display
Info & Location for EGHI (03865) | Help decoding METAR

Weather Conditions observed on 2017/11/19 at 17:50 UTC at SOUTHAMPTON WX C, UK (EGHI)

Temperature: 3.0 Celsius.

Dewpoint: 2.0 Celsius.

Relative Humidity: 93%

Winds: Calm at 0 km/h or 0 knots.

Mean Sea level Pressure: 102.40 kilopascals.

Coded METAR:

EGHI 191750Z 00000KT CAVOK 03/02 Q1024=